Time;durP1;ratioP1;P1;durP2;ratioP2;P2;SDS_P1;SDS_P2;PMS_P1;PMS_P2;Temp;Humidity;BMP_temperature;BMP_pressure;BME280_temperature;BME280_humidity;BME280_pressure;Samples;Min_cycle;Max_cycle;Signal;HPM_P1;HPM_P2
2021/10/14 00:02:20;;;;;;;2.90;2.60;;;;;;;;;;5010840;28;20193;-68
2021/10/14 00:04:54;;;;;;;5.63;3.13;;;;;;;;;;5011646;28;20713;-68
2021/10/14 00:07:20;;;;;;;3.13;2.37;;;;;;;;;;5010547;28;20291;-68
2021/10/14 00:09:46;;;;;;;5.10;2.70;;;;;;;;;;5009197;28;20193;-68
2021/10/14 00:12:13;;;;;;;6.30;2.87;;;;;;;;;;5009944;28;20276;-68
2021/10/14 00:14:39;;;;;;;4.87;2.70;;;;;;;;;;5028696;28;20279;-68
2021/10/14 00:17:05;;;;;;;2.90;2.40;;;;;;;;;;5010558;28;20177;-68
2021/10/14 00:19:31;;;;;;;3.40;2.67;;;;;;;;;;5017660;28;20220;-68
2021/10/14 00:21:58;;;;;;;3.87;2.60;;;;;;;;;;5007404;28;20669;-68
2021/10/14 00:24:24;;;;;;;5.23;2.70;;;;;;;;;;5010783;28;20196;-67
2021/10/14 00:26:53;;;;;;;2.50;2.10;;;;;;;;;;5009995;28;20295;-67
2021/10/14 00:29:20;;;;;;;4.13;3.20;;;;;;;;;;5010437;28;20192;-67
2021/10/14 00:31:49;;;;;;;4.43;2.50;;;;;;;;;;5010427;28;20186;-67
2021/10/14 00:34:16;;;;;;;5.90;2.83;;;;;;;;;;5028501;28;20186;-68
2021/10/14 00:36:44;;;;;;;3.27;2.60;;;;;;;;;;5010423;28;20703;-68
2021/10/14 00:39:11;;;;;;;3.00;2.57;;;;;;;;;;5027987;28;20209;-69
2021/10/14 00:41:41;;;;;;;3.33;2.60;;;;;;;;;;5027196;28;20547;-67
2021/10/14 00:44:10;;;;;;;4.30;2.50;;;;;;;;;;5010956;28;20781;-67
2021/10/14 00:46:36;;;;;;;3.97;2.90;;;;;;;;;;5027291;28;20816;-67
2021/10/14 00:49:08;;;;;;;3.85;2.83;;;;;;;;;;5008980;28;20384;-68
2021/10/14 00:51:34;;;;;;;4.53;2.80;;;;;;;;;;5027225;28;20387;-67
2021/10/14 00:54:00;;;;;;;2.83;2.40;;;;;;;;;;5010639;28;20185;-67
2021/10/14 00:56:27;;;;;;;3.43;2.73;;;;;;;;;;5026919;28;20541;-67
2021/10/14 00:58:54;;;;;;;4.00;2.60;;;;;;;;;;5010783;28;20248;-68
2021/10/14 01:01:20;;;;;;;4.63;3.23;;;;;;;;;;5010332;28;20216;-68
2021/10/14 01:03:46;;;;;;;2.80;2.60;;;;;;;;;;5010610;28;20193;-68
2021/10/14 01:06:13;;;;;;;3.13;2.63;;;;;;;;;;5010388;28;20178;-67
2021/10/14 01:08:40;;;;;;;7.40;3.13;;;;;;;;;;5016993;28;20438;-68
2021/10/14 01:11:06;;;;;;;5.53;3.17;;;;;;;;;;4989857;28;20290;-68
2021/10/14 01:13:41;;;;;;;3.90;3.37;;;;;;;;;;5001674;28;20217;-68
2021/10/14 01:16:07;;;;;;;4.27;2.70;;;;;;;;;;5010417;28;20173;-67
2021/10/14 01:18:34;;;;;;;3.47;2.57;;;;;;;;;;5028329;28;20173;-68
2021/10/14 01:21:03;;;;;;;3.23;2.90;;;;;;;;;;5012983;28;20184;-67
2021/10/14 01:23:29;;;;;;;3.03;2.73;;;;;;;;;;5014002;28;20177;-67
2021/10/14 01:25:58;;;;;;;4.23;2.83;;;;;;;;;;5013271;28;20225;-67
2021/10/14 01:28:24;;;;;;;5.80;3.10;;;;;;;;;;5013722;28;20209;-67
2021/10/14 01:31:01;;;;;;;4.80;2.77;;;;;;;;;;5013541;28;20174;-67
2021/10/14 01:33:27;;;;;;;5.43;2.93;;;;;;;;;;5031775;28;20165;-67
2021/10/14 01:35:56;;;;;;;3.53;3.00;;;;;;;;;;5013620;28;20260;-68
2021/10/14 01:38:22;;;;;;;4.70;3.23;;;;;;;;;;5013915;28;20277;-67
2021/10/14 01:40:51;;;;;;;7.37;2.97;;;;;;;;;;5012803;28;20667;-67
2021/10/14 01:43:20;;;;;;;4.30;3.07;;;;;;;;;;5031379;28;20178;-68
2021/10/14 01:45:49;;;;;;;3.97;2.93;;;;;;;;;;5013721;28;20186;-67
2021/10/14 01:48:15;;;;;;;3.37;3.07;;;;;;;;;;5002175;28;20208;-68
2021/10/14 01:51:02;;;;;;;7.93;3.23;;;;;;;;;;5013582;28;20178;-68
2021/10/14 01:53:29;;;;;;;3.63;2.80;;;;;;;;;;5012960;28;20186;-67
2021/10/14 01:55:55;;;;;;;3.87;3.10;;;;;;;;;;5011947;28;20233;-67
2021/10/14 01:58:22;;;;;;;5.70;4.23;;;;;;;;;;5030749;28;20182;-68
2021/10/14 02:00:54;;;;;;;7.63;4.03;;;;;;;;;;5011931;28;20178;-68
2021/10/14 02:03:20;;;;;;;9.03;6.40;;;;;;;;;;5008435;28;20728;-67
2021/10/14 02:05:46;;;;;;;8.80;4.67;;;;;;;;;;5011950;28;20376;-68
2021/10/14 02:08:16;;;;;;;5.67;3.43;;;;;;;;;;5030106;28;20209;-68
2021/10/14 02:10:43;;;;;;;7.00;4.20;;;;;;;;;;5026185;28;20184;-67
2021/10/14 02:13:09;;;;;;;5.83;3.90;;;;;;;;;;5024467;28;20661;-67
2021/10/14 02:15:39;;;;;;;5.13;4.10;;;;;;;;;;5013510;28;20632;-67
2021/10/14 02:18:08;;;;;;;6.20;4.30;;;;;;;;;;5012716;28;20185;-67
2021/10/14 02:20:40;;;;;;;6.33;4.50;;;;;;;;;;4993017;28;20179;-67
2021/10/14 02:23:10;;;;;;;6.17;4.63;;;;;;;;;;4999753;28;20676;-67
2021/10/14 02:25:42;;;;;;;5.10;3.83;;;;;;;;;;5013428;28;20593;-67
2021/10/14 02:28:11;;;;;;;5.80;4.07;;;;;;;;;;5029628;28;20244;-67
2021/10/14 02:30:37;;;;;;;6.70;4.60;;;;;;;;;;5012902;28;20182;-67
2021/10/14 02:33:04;;;;;;;5.03;4.13;;;;;;;;;;5012855;28;20178;-68
2021/10/14 02:35:30;;;;;;;5.63;4.40;;;;;;;;;;5013207;28;20683;-68
2021/10/14 02:37:56;;;;;;;6.70;4.40;;;;;;;;;;5012764;28;20271;-68
2021/10/14 02:40:28;;;;;;;6.33;4.37;;;;;;;;;;5012863;28;20178;-68
2021/10/14 02:42:57;;;;;;;5.60;4.13;;;;;;;;;;5029627;28;20188;-68
2021/10/14 02:45:24;;;;;;;4.13;3.73;;;;;;;;;;5012241;28;20545;-68
2021/10/14 02:47:50;;;;;;;7.43;4.23;;;;;;;;;;5012368;28;20233;-68
2021/10/14 02:50:16;;;;;;;5.80;4.57;;;;;;;;;;5012803;28;20198;-68
2021/10/14 02:52:43;;;;;;;5.23;4.13;;;;;;;;;;5012288;28;20320;-68
2021/10/14 02:55:09;;;;;;;7.33;4.23;;;;;;;;;;5030194;28;20335;-68
2021/10/14 02:57:35;;;;;;;9.33;4.53;;;;;;;;;;5011584;28;20523;-69
2021/10/14 03:00:11;;;;;;;6.67;5.20;;;;;;;;;;5011982;28;20232;-68
2021/10/14 03:02:38;;;;;;;5.87;4.00;;;;;;;;;;5011482;28;20752;-68
2021/10/14 03:05:04;;;;;;;4.00;3.60;;;;;;;;;;5011598;28;20177;-68
2021/10/14 03:07:33;;;;;;;4.77;4.27;;;;;;;;;;5010542;28;20201;-68
2021/10/14 03:09:59;;;;;;;8.20;4.43;;;;;;;;;;5009158;28;20272;-68
2021/10/14 03:12:28;;;;;;;5.17;4.13;;;;;;;;;;5008536;28;20209;-68
2021/10/14 03:14:58;;;;;;;7.60;4.43;;;;;;;;;;5030238;28;20249;-68
2021/10/14 03:17:24;;;;;;;8.23;4.83;;;;;;;;;;5029660;28;20188;-68
2021/10/14 03:19:50;;;;;;;5.70;4.10;;;;;;;;;;5030216;28;20240;-68
2021/10/14 03:22:17;;;;;;;6.00;4.40;;;;;;;;;;5011738;28;20182;-68
2021/10/14 03:24:43;;;;;;;6.20;4.20;;;;;;;;;;5011862;28;20680;-68
2021/10/14 03:27:09;;;;;;;9.77;4.60;;;;;;;;;;5010332;28;20557;-68
2021/10/14 03:29:36;;;;;;;5.23;4.53;;;;;;;;;;5029009;28;20280;-69
2021/10/14 03:32:02;;;;;;;6.73;6.13;;;;;;;;;;5029062;28;20174;-68
2021/10/14 03:34:28;;;;;;;8.43;4.80;;;;;;;;;;5029623;28;20182;-68
2021/10/14 03:36:57;;;;;;;4.77;4.00;;;;;;;;;;5029549;28;20174;-70
2021/10/14 03:39:23;;;;;;;5.77;4.77;;;;;;;;;;5011511;28;20710;-68
2021/10/14 03:41:55;;;;;;;5.93;4.40;;;;;;;;;;5010434;28;20209;-68
2021/10/14 03:44:21;;;;;;;7.57;4.70;;;;;;;;;;5011084;28;20224;-68
2021/10/14 03:46:47;;;;;;;4.53;4.13;;;;;;;;;;5011485;28;20193;-68
2021/10/14 03:49:13;;;;;;;5.23;4.10;;;;;;;;;;5029572;28;20177;-68
2021/10/14 03:51:40;;;;;;;4.83;3.93;;;;;;;;;;5011064;28;20285;-68
2021/10/14 03:54:06;;;;;;;5.77;4.27;;;;;;;;;;5029153;28;20178;-69
2021/10/14 03:56:33;;;;;;;6.07;3.60;;;;;;;;;;5010264;28;20728;-68
2021/10/14 03:58:59;;;;;;;6.97;3.93;;;;;;;;;;5029413;28;20192;-68
2021/10/14 04:01:25;;;;;;;6.23;4.30;;;;;;;;;;5029200;28;20162;-68
2021/10/14 04:03:51;;;;;;;4.83;3.83;;;;;;;;;;5029098;28;20278;-69
2021/10/14 04:06:21;;;;;;;8.03;5.60;;;;;;;;;;5011329;28;20611;-68
2021/10/14 04:08:53;;;;;;;5.93;4.47;;;;;;;;;;5011421;28;20260;-69
2021/10/14 04:11:20;;;;;;;5.53;4.33;;;;;;;;;;5010227;28;20252;-68
2021/10/14 04:13:49;;;;;;;5.50;4.30;;;;;;;;;;5029252;28;20182;-68
2021/10/14 04:16:17;;;;;;;5.63;5.07;;;;;;;;;;5010809;28;20169;-68
2021/10/14 04:18:44;;;;;;;6.70;4.43;;;;;;;;;;5029305;28;20261;-68
2021/10/14 04:21:13;;;;;;;7.53;6.27;;;;;;;;;;5011170;28;20174;-68
2021/10/14 04:23:44;;;;;;;6.63;4.87;;;;;;;;;;5010928;28;20285;-68
2021/10/14 04:26:11;;;;;;;7.00;5.03;;;;;;;;;;5009957;28;20169;-68
2021/10/14 04:28:38;;;;;;;5.50;4.20;;;;;;;;;;5011344;28;20711;-69
2021/10/14 04:31:05;;;;;;;6.30;5.10;;;;;;;;;;5010751;28;20197;-69
2021/10/14 04:33:31;;;;;;;6.53;5.33;;;;;;;;;;5029214;28;20259;-70
2021/10/14 04:36:04;;;;;;;5.30;4.43;;;;;;;;;;5028775;28;20219;-69
2021/10/14 04:38:31;;;;;;;5.80;5.10;;;;;;;;;;5010689;28;20197;-69
2021/10/14 04:41:03;;;;;;;8.33;5.20;;;;;;;;;;5028094;28;20185;-68
2021/10/14 04:43:32;;;;;;;7.37;4.83;;;;;;;;;;5028567;28;20344;-69
2021/10/14 04:45:59;;;;;;;8.43;5.97;;;;;;;;;;5028077;28;20225;-69
2021/10/14 04:48:27;;;;;;;5.17;4.67;;;;;;;;;;5010114;28;20676;-68
2021/10/14 04:50:57;;;;;;;5.90;5.30;;;;;;;;;;5027708;28;20181;-71
2021/10/14 04:53:23;;;;;;;5.73;5.20;;;;;;;;;;5009589;28;20213;-68
2021/10/14 04:55:52;;;;;;;6.00;5.10;;;;;;;;;;5013081;28;20722;-69
2021/10/14 04:58:19;;;;;;;6.30;5.27;;;;;;;;;;5013449;28;20221;-69
2021/10/14 05:00:45;;;;;;;6.73;5.17;;;;;;;;;;5031268;28;20177;-68
2021/10/14 05:03:14;;;;;;;6.77;6.03;;;;;;;;;;5031222;28;20181;-68
2021/10/14 05:05:48;;;;;;;8.53;6.20;;;;;;;;;;5013572;28;20295;-68
2021/10/14 05:08:15;;;;;;;7.63;5.30;;;;;;;;;;5012579;28;20228;-68
2021/10/14 05:10:41;;;;;;;6.90;5.13;;;;;;;;;;5013344;28;20552;-68
2021/10/14 05:13:12;;;;;;;10.00;5.73;;;;;;;;;;5011198;28;20193;-68
2021/10/14 05:15:41;;;;;;;8.17;6.33;;;;;;;;;;5012422;28;20177;-68
2021/10/14 05:18:08;;;;;;;6.20;5.60;;;;;;;;;;5012300;28;20580;-68
2021/10/14 05:20:35;;;;;;;6.37;5.23;;;;;;;;;;5013255;28;20531;-68
2021/10/14 05:23:01;;;;;;;8.73;6.30;;;;;;;;;;5012099;28;20612;-68
2021/10/14 05:25:28;;;;;;;8.23;5.80;;;;;;;;;;5013530;28;20178;-68
2021/10/14 05:27:59;;;;;;;7.63;6.17;;;;;;;;;;5029895;28;20197;-68
2021/10/14 05:30:28;;;;;;;7.57;6.00;;;;;;;;;;5013317;28;20659;-68
2021/10/14 05:32:55;;;;;;;6.83;6.07;;;;;;;;;;5030999;28;20182;-71
2021/10/14 05:35:21;;;;;;;7.63;6.43;;;;;;;;;;5013299;28;20301;-68
2021/10/14 05:37:47;;;;;;;12.13;7.20;;;;;;;;;;5011441;28;20267;-68
2021/10/14 05:40:14;;;;;;;9.15;8.20;;;;;;;;;;5010380;28;20391;-68
2021/10/14 05:42:40;;;;;;;6.60;6.00;;;;;;;;;;5010204;28;20474;-68
2021/10/14 05:45:16;;;;;;;9.63;6.63;;;;;;;;;;5029831;28;20193;-68
2021/10/14 05:47:45;;;;;;;8.27;7.07;;;;;;;;;;5010989;28;20216;-68
2021/10/14 05:50:11;;;;;;;8.43;7.53;;;;;;;;;;5011309;28;20207;-68
2021/10/14 05:52:37;;;;;;;10.47;6.97;;;;;;;;;;5012178;28;20287;-68
2021/10/14 05:55:04;;;;;;;9.80;7.63;;;;;;;;;;5030521;28;20174;-68
2021/10/14 05:57:30;;;;;;;9.17;6.93;;;;;;;;;;5011633;28;20177;-68
2021/10/14 05:59:57;;;;;;;8.43;7.10;;;;;;;;;;5012935;28;20608;-68
2021/10/14 06:02:23;;;;;;;8.77;7.13;;;;;;;;;;5012363;28;20178;-68
2021/10/14 06:04:50;;;;;;;10.30;8.10;;;;;;;;;;5012541;28;20263;-68
2021/10/14 06:07:25;;;;;;;9.57;7.20;;;;;;;;;;5011898;28;20555;-67
2021/10/14 06:09:52;;;;;;;7.93;7.13;;;;;;;;;;5012909;28;20517;-67
2021/10/14 06:12:22;;;;;;;12.83;8.00;;;;;;;;;;5029029;28;20616;-68
2021/10/14 06:14:48;;;;;;;10.27;7.40;;;;;;;;;;5012555;28;20540;-67
2021/10/14 06:17:32;;;;;;;8.00;6.83;;;;;;;;;;5011965;28;20185;-68
2021/10/14 06:19:58;;;;;;;8.13;7.03;;;;;;;;;;5010533;28;20525;-68
2021/10/14 06:22:28;;;;;;;11.57;7.60;;;;;;;;;;4993666;28;20362;-68
2021/10/14 06:24:57;;;;;;;13.47;8.63;;;;;;;;;;5012359;28;20228;-68
2021/10/14 06:27:23;;;;;;;9.03;7.57;;;;;;;;;;5010931;28;20457;-68
2021/10/14 06:29:49;;;;;;;11.10;7.83;;;;;;;;;;5030140;28;20306;-66
2021/10/14 06:32:15;;;;;;;10.43;7.80;;;;;;;;;;5011554;28;20173;-66
2021/10/14 06:34:41;;;;;;;11.27;8.33;;;;;;;;;;5011963;28;20286;-66
2021/10/14 06:37:07;;;;;;;10.37;8.67;;;;;;;;;;5029448;28;20182;-67
2021/10/14 06:39:34;;;;;;;14.37;8.90;;;;;;;;;;5011563;28;20229;-66
2021/10/14 06:42:01;;;;;;;11.90;9.27;;;;;;;;;;5028558;28;20632;-66
2021/10/14 06:44:28;;;;;;;10.67;8.80;;;;;;;;;;5029574;28;20178;-67
2021/10/14 06:46:54;;;;;;;13.77;9.37;;;;;;;;;;5011724;28;20220;-67
2021/10/14 06:49:20;;;;;;;12.00;8.60;;;;;;;;;;5012907;28;20182;-67
2021/10/14 06:51:55;;;;;;;12.43;8.97;;;;;;;;;;5011542;28;20193;-68
2021/10/14 06:54:21;;;;;;;12.57;9.23;;;;;;;;;;5029942;28;20646;-68
2021/10/14 06:56:47;;;;;;;10.80;9.37;;;;;;;;;;5029424;28;20226;-68
2021/10/14 06:59:13;;;;;;;12.60;10.13;;;;;;;;;;5030640;28;20557;-68
2021/10/14 07:01:40;;;;;;;12.27;9.80;;;;;;;;;;5030374;28;20648;-68
2021/10/14 07:04:06;;;;;;;12.87;9.47;;;;;;;;;;5029319;28;20184;-67
2021/10/14 07:06:32;;;;;;;14.50;11.37;;;;;;;;;;5012316;28;20227;-68
2021/10/14 07:08:58;;;;;;;12.80;10.33;;;;;;;;;;5030421;28;20595;-67
2021/10/14 07:11:40;;;;;;;12.50;10.33;;;;;;;;;;5028057;28;20641;-68
2021/10/14 07:14:12;;;;;;;15.37;10.67;;;;;;;;;;5012577;28;20189;-68
2021/10/14 07:16:38;;;;;;;13.63;10.60;;;;;;;;;;5029679;28;20208;-68
2021/10/14 07:19:04;;;;;;;13.30;9.67;;;;;;;;;;5028531;28;20178;-67
2021/10/14 07:21:30;;;;;;;14.10;11.30;;;;;;;;;;5011093;28;20263;-68
2021/10/14 07:23:57;;;;;;;12.70;9.73;;;;;;;;;;5011208;28;20201;-68
2021/10/14 07:26:23;;;;;;;15.20;10.90;;;;;;;;;;5006742;28;20546;-68
2021/10/14 07:28:49;;;;;;;14.67;10.17;;;;;;;;;;5022839;28;20192;-67
2021/10/14 07:31:16;;;;;;;13.00;10.30;;;;;;;;;;5010852;28;20202;-68
2021/10/14 07:33:45;;;;;;;15.97;12.40;;;;;;;;;;5028827;28;20178;-67
2021/10/14 07:36:11;;;;;;;14.27;11.23;;;;;;;;;;5028954;28;20516;-68
2021/10/14 07:38:40;;;;;;;12.60;11.00;;;;;;;;;;5011448;28;20276;-68
2021/10/14 07:41:09;;;;;;;13.90;10.63;;;;;;;;;;5027375;28;20205;-69
2021/10/14 07:43:38;;;;;;;12.90;10.20;;;;;;;;;;5010673;28;20213;-68
2021/10/14 07:46:07;;;;;;;14.60;11.70;;;;;;;;;;5028293;28;20736;-68
2021/10/14 07:48:36;;;;;;;16.10;11.63;;;;;;;;;;5010714;28;20194;-67
2021/10/14 07:51:09;;;;;;;12.93;11.20;;;;;;;;;;5010934;28;20177;-68
2021/10/14 07:53:35;;;;;;;14.93;11.77;;;;;;;;;;5010783;28;20540;-67
2021/10/14 07:56:05;;;;;;;14.47;11.07;;;;;;;;;;5027102;28;20267;-68
2021/10/14 07:58:31;;;;;;;16.50;10.67;;;;;;;;;;5010135;28;20247;-68
2021/10/14 08:01:01;;;;;;;14.47;11.40;;;;;;;;;;5010615;28;20188;-67
2021/10/14 08:03:27;;;;;;;14.40;11.00;;;;;;;;;;5028072;28;20597;-67
2021/10/14 08:05:56;;;;;;;13.40;10.80;;;;;;;;;;5010310;28;20687;-66
2021/10/14 08:08:22;;;;;;;15.90;11.60;;;;;;;;;;5007177;28;20212;-66
2021/10/14 08:10:48;;;;;;;21.57;12.00;;;;;;;;;;4989863;28;20175;-66
2021/10/14 08:13:16;;;;;;;17.17;11.47;;;;;;;;;;4998113;28;20174;-65
2021/10/14 08:15:42;;;;;;;13.67;10.80;;;;;;;;;;5009750;28;20174;-65
2021/10/14 08:18:11;;;;;;;15.40;11.67;;;;;;;;;;5009986;28;20575;-68
2021/10/14 08:20:37;;;;;;;16.97;11.73;;;;;;;;;;5009893;28;20185;-66
2021/10/14 08:23:11;;;;;;;16.93;11.93;;;;;;;;;;5009879;28;20196;-67
2021/10/14 08:25:37;;;;;;;15.63;12.03;;;;;;;;;;5010545;28;20204;-66
2021/10/14 08:28:03;;;;;;;15.90;12.57;;;;;;;;;;5008963;28;20209;-66
2021/10/14 08:30:35;;;;;;;15.70;12.47;;;;;;;;;;5013310;28;20517;-66
2021/10/14 08:33:01;;;;;;;17.73;12.03;;;;;;;;;;5004341;28;20177;-66
2021/10/14 08:35:35;;;;;;;13.20;11.00;;;;;;;;;;5016285;28;20195;-66
2021/10/14 08:38:01;;;;;;;18.97;12.90;;;;;;;;;;5034443;28;20268;-66
2021/10/14 08:40:27;;;;;;;13.93;11.87;;;;;;;;;;5020650;28;20228;-66
2021/10/14 08:42:57;;;;;;;18.03;12.53;;;;;;;;;;5002134;28;20702;-66
2021/10/14 08:45:23;;;;;;;18.00;12.10;;;;;;;;;;5017555;28;20177;-66
2021/10/14 08:47:54;;;;;;;17.57;12.63;;;;;;;;;;5035508;28;20197;-66
2021/10/14 08:50:21;;;;;;;16.33;12.20;;;;;;;;;;5035693;28;20147;-66
2021/10/14 08:52:50;;;;;;;16.10;12.03;;;;;;;;;;5027670;28;20197;-66
2021/10/14 08:55:16;;;;;;;17.30;13.50;;;;;;;;;;5037345;28;20299;-65
2021/10/14 08:57:46;;;;;;;17.47;13.37;;;;;;;;;;5031795;28;20230;-65
2021/10/14 09:00:18;;;;;;;16.00;11.60;;;;;;;;;;5017411;28;20256;-65
2021/10/14 09:02:45;;;;;;;19.93;12.63;;;;;;;;;;5016680;28;20193;-65
2021/10/14 09:05:14;;;;;;;18.77;13.10;;;;;;;;;;5016977;28;20537;-65
2021/10/14 09:07:41;;;;;;;15.77;12.43;;;;;;;;;;5016335;28;20202;-65
2021/10/14 09:10:12;;;;;;;15.67;12.43;;;;;;;;;;5034714;28;20176;-65
2021/10/14 09:12:39;;;;;;;18.87;13.27;;;;;;;;;;5015722;28;20174;-65
2021/10/14 09:15:08;;;;;;;20.17;14.40;;;;;;;;;;5017237;28;20178;-65
2021/10/14 09:17:38;;;;;;;16.47;12.33;;;;;;;;;;5016949;28;20220;-65
2021/10/14 09:20:23;;;;;;;18.20;13.33;;;;;;;;;;5017428;28;20207;-64
2021/10/14 09:22:59;;;;;;;17.47;13.53;;;;;;;;;;5035077;28;20696;-65
2021/10/14 09:25:29;;;;;;;19.10;13.93;;;;;;;;;;5034968;28;20181;-65
2021/10/14 09:28:06;;;;;;;20.50;13.13;;;;;;;;;;5015986;28;20732;-65
2021/10/14 09:30:32;;;;;;;19.87;13.13;;;;;;;;;;5014240;28;20178;-64
2021/10/14 09:32:58;;;;;;;16.20;11.87;;;;;;;;;;5003362;28;20189;-64
2021/10/14 09:35:28;;;;;;;15.07;12.73;;;;;;;;;;5017310;28;20165;-64
2021/10/14 09:37:54;;;;;;;16.00;12.73;;;;;;;;;;5016889;28;20320;-64
2021/10/14 09:40:27;;;;;;;15.93;12.90;;;;;;;;;;5015178;28;20169;-64
2021/10/14 09:42:57;;;;;;;17.10;12.83;;;;;;;;;;5012989;28;20186;-64
2021/10/14 09:45:26;;;;;;;17.53;13.10;;;;;;;;;;5014249;28;20185;-63
2021/10/14 09:48:06;;;;;;;16.10;12.10;;;;;;;;;;5013814;28;20197;-63
2021/10/14 09:50:34;;;;;;;19.97;14.33;;;;;;;;;;5013195;28;20252;-63
2021/10/14 09:53:01;;;;;;;17.20;12.93;;;;;;;;;;5030385;28;20210;-65
2021/10/14 09:55:27;;;;;;;17.70;12.80;;;;;;;;;;5030504;28;20523;-65
2021/10/14 09:57:55;;;;;;;16.60;13.20;;;;;;;;;;5010515;28;20609;-63
2021/10/14 10:00:21;;;;;;;18.63;12.40;;;;;;;;;;5011453;28;20177;-63
2021/10/14 10:02:48;;;;;;;19.87;12.57;;;;;;;;;;5011113;28;20181;-63
2021/10/14 10:05:14;;;;;;;15.63;12.37;;;;;;;;;;5011812;28;20182;-63
2021/10/14 10:07:42;;;;;;;18.97;13.53;;;;;;;;;;5012058;28;20212;-64
2021/10/14 10:10:09;;;;;;;15.97;12.43;;;;;;;;;;5012925;28;20180;-63
2021/10/14 10:12:36;;;;;;;15.40;12.60;;;;;;;;;;5011310;28;20182;-64
2021/10/14 10:15:03;;;;;;;18.80;12.83;;;;;;;;;;5012600;28;20182;-64
2021/10/14 10:17:37;;;;;;;15.23;11.83;;;;;;;;;;5030047;28;20166;-66
2021/10/14 10:20:04;;;;;;;15.93;13.17;;;;;;;;;;5013023;28;20173;-63
2021/10/14 10:22:33;;;;;;;16.77;13.17;;;;;;;;;;5012044;28;20182;-64
2021/10/14 10:25:19;;;;;;;15.13;12.53;;;;;;;;;;5012426;28;20213;-63
2021/10/14 10:27:46;;;;;;;13.00;11.13;;;;;;;;;;5028871;28;20243;-63
2021/10/14 10:30:33;;;;;;;16.60;12.03;;;;;;;;;;5008781;28;20182;-63
2021/10/14 10:33:00;;;;;;;16.30;12.07;;;;;;;;;;5016140;28;20170;-64
2021/10/14 10:35:40;;;;;;;16.90;12.87;;;;;;;;;;5030032;28;20283;-63
2021/10/14 10:38:14;;;;;;;16.57;12.77;;;;;;;;;;5011613;28;20729;-63
2021/10/14 10:40:40;;;;;;;16.93;12.40;;;;;;;;;;5008478;28;20293;-63
2021/10/14 10:43:07;;;;;;;15.17;11.93;;;;;;;;;;4998125;28;20341;-64
2021/10/14 10:45:42;;;;;;;18.90;11.67;;;;;;;;;;5012120;28;20181;-63
2021/10/14 10:48:09;;;;;;;17.27;11.97;;;;;;;;;;5011442;28;20197;-63
2021/10/14 10:50:35;;;;;;;19.77;12.93;;;;;;;;;;5029775;28;20191;-64
2021/10/14 10:53:02;;;;;;;18.00;11.60;;;;;;;;;;5011029;28;20657;-63
2021/10/14 10:55:31;;;;;;;15.43;11.77;;;;;;;;;;5028983;28;20173;-63
2021/10/14 10:57:57;;;;;;;16.40;12.27;;;;;;;;;;5010203;28;20193;-63
2021/10/14 11:00:24;;;;;;;14.73;11.93;;;;;;;;;;5011496;28;20248;-63
2021/10/14 11:03:15;;;;;;;23.83;12.97;;;;;;;;;;5011085;28;20178;-63
2021/10/14 11:05:43;;;;;;;16.47;11.60;;;;;;;;;;5011399;28;20261;-63
2021/10/14 11:08:13;;;;;;;16.90;11.03;;;;;;;;;;5010940;28;20719;-63
2021/10/14 11:10:40;;;;;;;13.93;10.93;;;;;;;;;;5011926;28;20162;-63
2021/10/14 11:13:06;;;;;;;15.40;10.60;;;;;;;;;;5027615;28;20181;-63
2021/10/14 11:15:33;;;;;;;16.60;11.70;;;;;;;;;;5011188;28;20619;-63
2021/10/14 11:18:03;;;;;;;13.50;10.93;;;;;;;;;;5010738;28;20551;-63
2021/10/14 11:20:29;;;;;;;15.73;12.07;;;;;;;;;;5029018;28;20231;-63
2021/10/14 11:23:06;;;;;;;15.60;11.23;;;;;;;;;;5010583;28;20197;-63
2021/10/14 11:25:32;;;;;;;14.13;12.27;;;;;;;;;;5013365;28;20230;-66
2021/10/14 11:28:03;;;;;;;12.80;10.13;;;;;;;;;;5029405;28;20200;-64
2021/10/14 11:30:42;;;;;;;14.60;10.20;;;;;;;;;;5009054;28;20185;-63
2021/10/14 11:33:28;;;;;;;12.87;10.37;;;;;;;;;;5000374;28;20627;-64
2021/10/14 11:36:02;;;;;;;14.87;10.63;;;;;;;;;;5031044;28;20159;-67
2021/10/14 11:38:29;;;;;;;18.90;13.80;;;;;;;;;;5011390;28;20421;-63
2021/10/14 11:40:55;;;;;;;14.87;12.57;;;;;;;;;;5029833;28;20271;-61
2021/10/14 11:43:29;;;;;;;18.35;12.68;;;;;;;;;;5011457;28;20520;-60
2021/10/14 11:45:59;;;;;;;20.63;11.83;;;;;;;;;;5012004;28;20197;-65
2021/10/14 11:48:36;;;;;;;15.60;10.97;;;;;;;;;;5012068;28;20644;-60
2021/10/14 11:51:09;;;;;;;16.10;10.40;;;;;;;;;;5013007;28;20177;-61
2021/10/14 11:53:37;;;;;;;14.10;10.97;;;;;;;;;;5032236;28;20181;-61
2021/10/14 11:56:05;;;;;;;14.63;10.33;;;;;;;;;;5030921;28;20231;-60
2021/10/14 12:01:20;;;;;;;14.37;11.43;;;;;;;;;;5015511;28;20243;-61
2021/10/14 12:03:47;;;;;;;14.20;10.70;;;;;;;;;;5032290;28;20177;-61
2021/10/14 12:06:14;;;;;;;11.93;10.50;;;;;;;;;;5014525;28;20173;-61
2021/10/14 12:08:40;;;;;;;14.73;9.97;;;;;;;;;;5011999;28;20229;-61
2021/10/14 12:11:36;;;;;;;12.70;9.77;;;;;;;;;;4992776;28;20221;-61
2021/10/14 12:14:05;;;;;;;14.43;10.27;;;;;;;;;;5012622;28;20194;-62
2021/10/14 12:16:32;;;;;;;12.53;9.63;;;;;;;;;;5012702;28;20592;-62
2021/10/14 12:19:18;;;;;;;14.33;10.37;;;;;;;;;;5004692;28;20201;-61
2021/10/14 12:21:45;;;;;;;12.33;9.23;;;;;;;;;;5012564;28;20205;-62
2021/10/14 12:24:12;;;;;;;12.37;10.03;;;;;;;;;;5024894;28;20189;-62
2021/10/14 12:26:40;;;;;;;9.73;8.73;;;;;;;;;;5030147;28;20255;-62
2021/10/14 12:29:26;;;;;;;11.53;9.83;;;;;;;;;;5048311;28;20204;-62
2021/10/14 12:32:13;;;;;;;11.87;9.37;;;;;;;;;;5011370;28;20212;-62
2021/10/14 12:34:59;;;;;;;12.83;9.63;;;;;;;;;;5012530;28;20549;-62
2021/10/14 12:37:26;;;;;;;10.60;9.50;;;;;;;;;;5009422;28;20278;-62
2021/10/14 12:40:11;;;;;;;13.00;9.53;;;;;;;;;;5028853;28;20173;-62
2021/10/14 12:48:33;;;;;;;11.83;10.10;;;;;;;;;;5028876;28;20204;-62
2021/10/14 12:53:38;;;;;;;13.70;9.37;;;;;;;;;;5028429;28;20238;-63
2021/10/14 12:56:05;;;;;;;17.73;9.40;;;;;;;;;;5009278;28;20222;-65
2021/10/14 12:58:31;;;;;;;12.97;9.80;;;;;;;;;;5036136;28;20208;-64
2021/10/14 13:00:58;;;;;;;14.43;9.27;;;;;;;;;;5048811;28;20181;-63
2021/10/14 13:03:27;;;;;;;14.23;9.17;;;;;;;;;;5020812;28;20217;-63
2021/10/14 13:05:53;;;;;;;14.40;9.60;;;;;;;;;;4990574;28;20249;-64
2021/10/14 13:08:23;;;;;;;10.87;9.27;;;;;;;;;;4999043;28;20547;-63
2021/10/14 13:10:49;;;;;;;14.53;9.37;;;;;;;;;;5008558;28;20659;-63
2021/10/14 13:13:18;;;;;;;13.33;9.73;;;;;;;;;;5025731;28;20174;-63
2021/10/14 13:15:47;;;;;;;14.03;9.23;;;;;;;;;;5010003;28;20206;-63
2021/10/14 13:18:13;;;;;;;14.97;9.83;;;;;;;;;;5013098;28;20548;-63
2021/10/14 13:20:40;;;;;;;12.50;9.27;;;;;;;;;;5013698;28;20188;-63
2021/10/14 13:23:06;;;;;;;11.87;8.77;;;;;;;;;;5013648;28;20185;-62
2021/10/14 13:25:33;;;;;;;13.20;9.27;;;;;;;;;;5031085;28;20170;-63
2021/10/14 13:27:59;;;;;;;10.73;8.63;;;;;;;;;;5011923;28;20673;-63
2021/10/14 13:30:28;;;;;;;12.20;8.97;;;;;;;;;;5010030;28;20205;-62
2021/10/14 13:32:55;;;;;;;14.97;8.20;;;;;;;;;;4997558;28;20272;-62
2021/10/14 13:35:22;;;;;;;11.07;8.60;;;;;;;;;;5011373;28;20174;-62
2021/10/14 13:37:48;;;;;;;12.03;9.40;;;;;;;;;;5011054;28;20228;-62
2021/10/14 13:40:15;;;;;;;11.93;8.50;;;;;;;;;;5017205;28;20187;-62
2021/10/14 13:42:47;;;;;;;14.10;9.03;;;;;;;;;;4994113;28;20524;-62
2021/10/14 13:45:16;;;;;;;13.77;8.87;;;;;;;;;;5011734;28;20177;-62
2021/10/14 13:47:43;;;;;;;13.23;9.57;;;;;;;;;;5011800;28;20202;-62
2021/10/14 13:50:20;;;;;;;9.03;7.97;;;;;;;;;;5012604;28;20721;-62
2021/10/14 13:52:46;;;;;;;9.03;7.90;;;;;;;;;;5030423;28;20612;-62
2021/10/14 13:55:15;;;;;;;9.57;7.73;;;;;;;;;;5030505;28;20176;-61
2021/10/14 13:57:44;;;;;;;11.27;8.50;;;;;;;;;;5028894;28;20343;-61
2021/10/14 14:00:12;;;;;;;15.83;9.33;;;;;;;;;;5012930;28;20198;-62
2021/10/14 14:02:39;;;;;;;11.70;8.60;;;;;;;;;;5029992;28;20197;-62
2021/10/14 14:05:08;;;;;;;13.87;9.87;;;;;;;;;;5012381;28;20491;-62
2021/10/14 14:07:35;;;;;;;9.13;7.67;;;;;;;;;;5030141;28;20584;-62
2021/10/14 14:10:01;;;;;;;10.80;7.87;;;;;;;;;;5012394;28;20212;-62
2021/10/14 14:12:29;;;;;;;12.93;9.13;;;;;;;;;;5011078;28;20264;-62
2021/10/14 14:14:55;;;;;;;12.10;8.20;;;;;;;;;;5009201;28;20907;-62
2021/10/14 14:17:22;;;;;;;9.13;7.40;;;;;;;;;;4993293;28;20182;-62
2021/10/14 14:19:48;;;;;;;10.53;8.67;;;;;;;;;;5030016;28;20178;-62
2021/10/14 14:22:15;;;;;;;11.53;8.00;;;;;;;;;;5011899;28;20178;-62
2021/10/14 14:24:41;;;;;;;11.77;7.70;;;;;;;;;;4992565;28;20306;-62
2021/10/14 14:27:08;;;;;;;11.27;8.27;;;;;;;;;;4990722;28;20574;-62
2021/10/14 14:29:34;;;;;;;10.10;7.20;;;;;;;;;;5007661;28;20183;-61
2021/10/14 14:32:01;;;;;;;10.40;7.20;;;;;;;;;;4991901;28;20257;-61
2021/10/14 14:34:31;;;;;;;8.83;6.90;;;;;;;;;;5009994;28;20427;-62
2021/10/14 14:36:57;;;;;;;10.87;7.30;;;;;;;;;;5031728;28;20251;-62
2021/10/14 14:39:23;;;;;;;9.33;7.13;;;;;;;;;;5049170;28;20619;-62
2021/10/14 14:41:50;;;;;;;10.67;7.30;;;;;;;;;;5030575;28;20180;-62
2021/10/14 14:44:17;;;;;;;10.73;7.57;;;;;;;;;;5014308;28;20288;-62
2021/10/14 14:46:51;;;;;;;12.73;7.63;;;;;;;;;;5011345;28;20178;-62
2021/10/14 14:49:17;;;;;;;10.97;7.10;;;;;;;;;;5011344;28;20214;-62
2021/10/14 14:51:43;;;;;;;10.00;7.03;;;;;;;;;;5011325;28;20237;-62